createdAt,value
2023-05-23T00:03:25.386Z,21.70
2023-05-23T00:08:29.972Z,21.70
2023-05-23T00:13:34.903Z,21.70
2023-05-23T00:18:38.226Z,21.70
2023-05-23T00:23:43.383Z,21.70
2023-05-23T00:28:46.499Z,21.60
2023-05-23T00:33:49.653Z,21.60
2023-05-23T00:38:54.420Z,21.50
2023-05-23T00:43:59.901Z,21.50
2023-05-23T00:49:03.331Z,21.50
2023-05-23T00:54:08.289Z,21.50
2023-05-23T00:59:11.621Z,21.50
2023-05-23T01:04:16.858Z,21.50
2023-05-23T01:09:22.847Z,21.40
2023-05-23T01:14:34.345Z,21.40
2023-05-23T01:20:01.114Z,21.40
2023-05-23T01:25:12.983Z,21.40
2023-05-23T01:30:21.039Z,21.40
2023-05-23T01:35:27.467Z,21.40
2023-05-23T01:40:30.782Z,21.40
2023-05-23T01:45:35.695Z,21.40
2023-05-23T01:50:39.390Z,21.30
2023-05-23T01:55:43.196Z,21.30
2023-05-23T02:00:47.926Z,21.30
2023-05-23T02:05:51.070Z,21.30
2023-05-23T02:10:54.172Z,21.30
2023-05-23T02:15:58.636Z,21.30
2023-05-23T02:21:01.829Z,21.30
2023-05-23T02:26:05.011Z,21.20
2023-05-23T02:31:09.557Z,21.20
2023-05-23T02:36:12.699Z,21.20
2023-05-23T02:41:15.930Z,21.20
2023-05-23T02:46:20.483Z,21.20
2023-05-23T02:51:23.698Z,21.10
2023-05-23T02:56:27.035Z,21.10
2023-05-23T03:01:31.658Z,21.00
2023-05-23T03:06:37.023Z,20.90
2023-05-23T03:11:40.410Z,20.90
2023-05-23T03:16:45.524Z,20.80
2023-05-23T03:21:50.286Z,20.80
2023-05-23T03:26:53.381Z,20.60
2023-05-23T03:31:57.927Z,20.50
2023-05-23T03:37:01.231Z,20.30
2023-05-23T03:42:04.529Z,20.30
2023-05-23T03:47:09.283Z,20.30
2023-05-23T03:52:12.534Z,20.20
2023-05-23T03:57:15.664Z,20.20
2023-05-23T04:02:20.219Z,20.20
2023-05-23T04:07:23.481Z,20.10
2023-05-23T04:12:26.788Z,20.10
2023-05-23T04:17:31.460Z,20.00
2023-05-23T04:22:34.638Z,20.00
2023-05-23T04:27:40.549Z,19.90
2023-05-23T04:32:46.156Z,19.90
2023-05-23T04:37:49.424Z,19.80
2023-05-23T04:42:52.548Z,19.80
2023-05-23T04:47:57.053Z,19.80
2023-05-23T04:53:00.354Z,19.90
2023-05-23T04:58:03.607Z,20.00
2023-05-23T05:03:09.924Z,20.00
2023-05-23T05:08:14.404Z,20.10
2023-05-23T05:13:17.649Z,20.10
2023-05-23T05:18:22.255Z,20.20
2023-05-23T05:23:28.926Z,20.20
2023-05-23T05:28:32.281Z,20.30
2023-05-23T05:33:37.715Z,20.40
2023-05-23T05:38:40.994Z,20.50
2023-05-23T05:43:44.203Z,20.60
2023-05-23T05:48:49.003Z,20.60
2023-05-23T05:53:52.154Z,20.70
2023-05-23T05:58:55.333Z,20.80
2023-05-23T06:04:00.013Z,20.90
2023-05-23T06:09:03.309Z,21.00
2023-05-23T06:14:06.618Z,21.00
2023-05-23T06:19:11.792Z,21.10
2023-05-23T06:24:14.987Z,21.20
2023-05-23T06:29:18.157Z,21.20
2023-05-23T06:34:22.618Z,21.20
2023-05-23T06:39:25.755Z,21.30
2023-05-23T06:44:28.921Z,21.30
2023-05-23T06:49:33.576Z,21.40
2023-05-23T06:54:36.705Z,21.50
2023-05-23T06:59:39.857Z,21.50
2023-05-23T07:04:44.325Z,21.70
2023-05-23T07:09:47.685Z,21.70
2023-05-23T07:14:51.064Z,21.80
2023-05-23T07:19:55.726Z,21.90
2023-05-23T07:24:58.893Z,22.00
2023-05-23T07:30:02.059Z,22.10
2023-05-23T07:35:07.341Z,22.00
2023-05-23T07:40:11.136Z,21.90
2023-05-23T07:45:14.627Z,22.00
2023-05-23T07:50:19.122Z,22.00
2023-05-23T07:55:22.445Z,22.00
2023-05-23T08:00:25.605Z,22.00
2023-05-23T08:05:30.102Z,22.00
2023-05-23T08:10:33.849Z,22.20
2023-05-23T08:15:37.019Z,22.20
2023-05-23T08:20:41.738Z,22.20
2023-05-23T08:25:45.223Z,22.30
2023-05-23T08:30:48.411Z,22.40
2023-05-23T08:35:52.919Z,22.50
2023-05-23T08:40:57.655Z,22.60
2023-05-23T08:46:00.915Z,22.70
2023-05-23T08:51:06.319Z,22.80
2023-05-23T08:56:11.277Z,23.00
2023-05-23T09:01:14.873Z,23.20
2023-05-23T09:06:22.767Z,23.30
2023-05-23T09:11:26.458Z,23.40
2023-05-23T09:16:35.024Z,23.40
2023-05-23T09:21:43.697Z,23.40
2023-05-23T09:26:49.002Z,23.30
2023-05-23T09:31:52.142Z,23.30
2023-05-23T09:36:58.211Z,23.30
2023-05-23T09:42:02.781Z,23.30
2023-05-23T09:47:08.424Z,23.30
2023-05-23T09:52:13.590Z,23.40
2023-05-23T09:57:17.832Z,23.40
2023-05-23T10:02:37.041Z,23.40
2023-05-23T10:07:43.600Z,23.50
2023-05-23T10:12:51.341Z,23.60
2023-05-23T10:18:03.867Z,23.70
2023-05-23T10:23:08.893Z,23.70
2023-05-23T10:28:13.066Z,23.70
2023-05-23T10:33:17.244Z,23.70
2023-05-23T10:38:32.411Z,23.60
2023-05-23T10:43:44.095Z,23.60
2023-05-23T10:48:47.852Z,23.60
2023-05-23T10:53:56.335Z,23.60
2023-05-23T10:58:59.573Z,23.70
2023-05-23T11:04:07.367Z,23.90
2023-05-23T11:09:15.040Z,24.00
2023-05-23T11:14:18.343Z,24.20
2023-05-23T11:19:29.434Z,24.20
2023-05-23T11:24:53.544Z,24.20
2023-05-23T11:30:03.887Z,24.30
2023-05-23T11:35:09.299Z,24.30
2023-05-23T11:40:31.892Z,24.40
2023-05-23T11:45:36.272Z,24.50
2023-05-23T11:50:47.511Z,24.50
2023-05-23T11:55:54.428Z,24.60
2023-05-23T12:01:01.769Z,24.60
2023-05-23T12:06:05.223Z,24.70
2023-05-23T12:11:10.191Z,24.70
2023-05-23T12:16:15.780Z,24.70
2023-05-23T12:21:19.104Z,24.70
2023-05-23T12:26:24.797Z,24.70
2023-05-23T12:31:28.834Z,24.90
2023-05-23T12:36:33.164Z,25.00
2023-05-23T12:41:37.715Z,25.10
2023-05-23T12:46:41.276Z,25.10
2023-05-23T12:51:44.502Z,25.10
2023-05-23T12:56:49.044Z,25.00
2023-05-23T13:01:52.283Z,25.00
2023-05-23T13:06:55.477Z,25.00
2023-05-23T13:12:00.816Z,25.00
2023-05-23T13:17:04.948Z,25.00
2023-05-23T13:22:10.467Z,25.00
2023-05-23T13:27:14.996Z,24.90
2023-05-23T13:32:18.757Z,24.80
2023-05-23T13:37:22.116Z,24.70
2023-05-23T13:42:27.574Z,24.60
2023-05-23T13:47:30.929Z,24.70
2023-05-23T13:52:34.037Z,24.60
2023-05-23T13:57:39.254Z,24.50
2023-05-23T14:02:42.429Z,24.50
2023-05-23T14:07:47.306Z,24.40
2023-05-23T14:12:51.844Z,24.30
2023-05-23T14:17:57.798Z,24.30
2023-05-23T14:23:01.026Z,24.30
2023-05-23T14:28:05.608Z,24.30
2023-05-23T14:33:10.983Z,24.30
2023-05-23T14:38:14.595Z,24.20
2023-05-23T14:43:19.159Z,24.20
2023-05-23T14:48:22.324Z,24.20
2023-05-23T14:53:27.695Z,24.20
2023-05-23T14:58:32.171Z,24.20
2023-05-23T15:03:35.381Z,24.20
2023-05-23T15:08:38.501Z,24.20
2023-05-23T15:13:42.974Z,24.20
2023-05-23T15:18:46.211Z,24.20
2023-05-23T15:23:49.375Z,24.10
2023-05-23T15:28:53.970Z,24.10
2023-05-23T15:33:57.099Z,24.10
2023-05-23T15:39:00.240Z,24.10
2023-05-23T15:44:04.755Z,24.00
2023-05-23T15:49:21.721Z,24.00
2023-05-23T15:54:29.390Z,24.00
2023-05-23T15:59:33.916Z,23.90
2023-05-23T16:04:37.102Z,23.80
2023-05-23T16:09:40.351Z,23.70
2023-05-23T16:14:44.868Z,23.70
2023-05-23T16:19:48.036Z,23.70
2023-05-23T16:24:51.957Z,23.70
2023-05-23T16:29:57.895Z,23.70
2023-05-23T16:35:01.042Z,23.70
2023-05-23T16:40:04.385Z,23.80
2023-05-23T16:45:09.936Z,23.70
2023-05-23T16:50:13.373Z,23.70
2023-05-23T16:55:16.771Z,23.70
2023-05-23T17:00:21.951Z,23.60
2023-05-23T17:05:25.180Z,23.60
2023-05-23T17:10:28.277Z,23.60
2023-05-23T17:15:33.029Z,23.60
2023-05-23T17:20:36.366Z,23.60
2023-05-23T17:25:39.909Z,23.60
2023-05-23T17:30:45.755Z,23.60
2023-05-23T17:35:48.911Z,23.60
2023-05-23T17:40:52.912Z,23.60
2023-05-23T17:45:58.285Z,23.60
2023-05-23T17:51:01.596Z,23.60
2023-05-23T17:56:04.804Z,23.60
2023-05-23T18:01:09.348Z,23.50
2023-05-23T18:06:13.900Z,23.50
2023-05-23T18:11:18.491Z,23.40
2023-05-23T18:16:23.079Z,23.30
2023-05-23T18:21:27.302Z,23.10
2023-05-23T18:26:33.551Z,23.00
2023-05-23T18:31:38.226Z,22.80
2023-05-23T18:36:42.385Z,22.80
2023-05-23T18:41:45.629Z,22.60
2023-05-23T18:46:50.319Z,22.60
2023-05-23T18:51:54.446Z,22.60
2023-05-23T18:56:57.656Z,22.60
2023-05-23T19:02:02.236Z,22.50
2023-05-23T19:07:07.394Z,22.40
2023-05-23T19:12:10.527Z,22.40
2023-05-23T19:17:15.144Z,22.30
2023-05-23T19:22:18.460Z,22.30
2023-05-23T19:27:21.696Z,22.20
2023-05-23T19:32:26.319Z,22.20
2023-05-23T19:37:29.678Z,22.20
2023-05-23T19:42:33.055Z,22.10
2023-05-23T19:47:37.838Z,22.10
2023-05-23T19:52:41.977Z,22.10
2023-05-23T19:57:45.414Z,22.10
2023-05-23T20:02:50.523Z,22.10
2023-05-23T20:07:53.755Z,22.00
2023-05-23T20:12:56.968Z,21.90
2023-05-23T20:18:01.672Z,21.70
2023-05-23T20:23:05.694Z,21.60
2023-05-23T20:28:08.879Z,21.50
2023-05-23T20:33:15.613Z,21.30
2023-05-23T20:38:20.283Z,21.30
2023-05-23T20:43:23.799Z,21.20
2023-05-23T20:48:28.647Z,21.10
2023-05-23T20:53:31.946Z,21.10
2023-05-23T20:58:35.091Z,21.10
2023-05-23T21:03:39.639Z,21.00
2023-05-23T21:08:42.772Z,20.90
2023-05-23T21:13:46.079Z,20.70
2023-05-23T21:18:50.777Z,20.50
2023-05-23T21:23:53.921Z,20.30
2023-05-23T21:28:57.034Z,20.00
2023-05-23T21:34:14.622Z,19.80
2023-05-23T21:39:26.174Z,19.50
2023-05-23T21:44:32.271Z,19.40
2023-05-23T21:49:37.961Z,19.40
2023-05-23T21:54:41.073Z,19.40
2023-05-23T21:59:44.460Z,19.30
2023-05-23T22:04:48.945Z,19.30
2023-05-23T22:09:53.444Z,19.10
2023-05-23T22:14:57.296Z,19.00
2023-05-23T22:20:02.399Z,19.00
2023-05-23T22:25:06.301Z,18.90
2023-05-23T22:30:10.163Z,18.80
2023-05-23T22:35:14.715Z,18.70
2023-05-23T22:40:18.070Z,18.70
2023-05-23T22:45:21.374Z,18.60
2023-05-23T22:50:27.062Z,18.60
2023-05-23T22:55:30.377Z,18.60
2023-05-23T23:00:33.603Z,18.60
2023-05-23T23:05:38.183Z,18.60
2023-05-23T23:10:42.043Z,18.60
2023-05-23T23:15:45.412Z,18.50
2023-05-23T23:20:49.925Z,18.50
2023-05-23T23:25:53.185Z,18.40
2023-05-23T23:30:56.512Z,18.40
2023-05-23T23:36:01.012Z,18.40
2023-05-23T23:41:04.151Z,18.40
2023-05-23T23:46:07.388Z,18.40
2023-05-23T23:51:12.942Z,18.40
2023-05-23T23:56:16.107Z,18.40
